sensor_id;sensor_type;location;lat;lon;timestamp;temperature;humidity
4795;DHT22;2411;47.060;15.064;2022-12-07T00:01:32;-1.40;91.70
4795;DHT22;2411;47.060;15.064;2022-12-07T00:04:01;-1.40;94.40
4795;DHT22;2411;47.060;15.064;2022-12-07T00:06:43;-1.30;99.10
4795;DHT22;2411;47.060;15.064;2022-12-07T00:09:13;-1.40;99.90
4795;DHT22;2411;47.060;15.064;2022-12-07T00:11:41;-1.30;99.90
4795;DHT22;2411;47.060;15.064;2022-12-07T00:14:14;-1.30;99.90
4795;DHT22;2411;47.060;15.064;2022-12-07T00:16:42;-1.30;99.90
4795;DHT22;2411;47.060;15.064;2022-12-07T00:19:12;-1.30;99.90
4795;DHT22;2411;47.060;15.064;2022-12-07T00:21:40;-1.30;98.90
4795;DHT22;2411;47.060;15.064;2022-12-07T00:24:08;-1.30;99.90
4795;DHT22;2411;47.060;15.064;2022-12-07T00:26:38;-1.30;99.90
4795;DHT22;2411;47.060;15.064;2022-12-07T00:29:25;-1.30;99.90
4795;DHT22;2411;47.060;15.064;2022-12-07T00:31:52;-1.20;99.90
4795;DHT22;2411;47.060;15.064;2022-12-07T00:34:21;-1.20;99.90
4795;DHT22;2411;47.060;15.064;2022-12-07T00:36:48;-1.10;99.90
4795;DHT22;2411;47.060;15.064;2022-12-07T00:39:16;-1.20;97.90
4795;DHT22;2411;47.060;15.064;2022-12-07T00:41:43;-1.30;86.90
4795;DHT22;2411;47.060;15.064;2022-12-07T00:44:11;-1.40;72.90
4795;DHT22;2411;47.060;15.064;2022-12-07T00:46:38;-1.50;72.40
4795;DHT22;2411;47.060;15.064;2022-12-07T00:49:06;-1.50;77.60
4795;DHT22;2411;47.060;15.064;2022-12-07T00:51:33;-1.60;80.70
4795;DHT22;2411;47.060;15.064;2022-12-07T00:54:00;-1.50;83.40
4795;DHT22;2411;47.060;15.064;2022-12-07T00:56:28;-1.50;88.10
4795;DHT22;2411;47.060;15.064;2022-12-07T00:59:01;-1.50;89.80
4795;DHT22;2411;47.060;15.064;2022-12-07T01:01:35;-1.60;86.00
4795;DHT22;2411;47.060;15.064;2022-12-07T01:04:03;-1.50;92.90
4795;DHT22;2411;47.060;15.064;2022-12-07T01:06:30;-1.50;90.10
4795;DHT22;2411;47.060;15.064;2022-12-07T01:08:58;-1.50;87.20
4795;DHT22;2411;47.060;15.064;2022-12-07T01:11:28;-1.60;85.30
4795;DHT22;2411;47.060;15.064;2022-12-07T01:13:57;-1.60;79.50
4795;DHT22;2411;47.060;15.064;2022-12-07T01:16:27;-1.60;79.60
4795;DHT22;2411;47.060;15.064;2022-12-07T01:18:56;-1.60;83.30
4795;DHT22;2411;47.060;15.064;2022-12-07T01:21:26;-1.60;86.80
4795;DHT22;2411;47.060;15.064;2022-12-07T01:23:54;-1.60;82.60
4795;DHT22;2411;47.060;15.064;2022-12-07T01:26:23;-1.60;94.90
4795;DHT22;2411;47.060;15.064;2022-12-07T01:28:51;-1.50;99.90
4795;DHT22;2411;47.060;15.064;2022-12-07T01:31:21;-1.30;99.90
4795;DHT22;2411;47.060;15.064;2022-12-07T01:33:52;-1.30;98.50
4795;DHT22;2411;47.060;15.064;2022-12-07T01:36:21;-1.40;99.90
4795;DHT22;2411;47.060;15.064;2022-12-07T01:38:51;-1.50;87.10
4795;DHT22;2411;47.060;15.064;2022-12-07T01:41:20;-1.50;83.40
4795;DHT22;2411;47.060;15.064;2022-12-07T01:44:23;-1.40;93.20
4795;DHT22;2411;47.060;15.064;2022-12-07T01:46:55;-1.40;89.40
4795;DHT22;2411;47.060;15.064;2022-12-07T01:49:45;-1.50;81.40
4795;DHT22;2411;47.060;15.064;2022-12-07T01:54:44;-1.50;91.20
4795;DHT22;2411;47.060;15.064;2022-12-07T01:57:12;-1.60;73.80
4795;DHT22;2411;47.060;15.064;2022-12-07T01:59:42;-1.70;73.10
4795;DHT22;2411;47.060;15.064;2022-12-07T02:02:18;-1.80;74.90
4795;DHT22;2411;47.060;15.064;2022-12-07T02:04:46;-1.90;82.80
4795;DHT22;2411;47.060;15.064;2022-12-07T02:07:13;-2.00;87.10
4795;DHT22;2411;47.060;15.064;2022-12-07T02:09:41;-2.00;90.20
4795;DHT22;2411;47.060;15.064;2022-12-07T02:12:08;-1.90;94.50
4795;DHT22;2411;47.060;15.064;2022-12-07T02:14:36;-1.80;99.70
4795;DHT22;2411;47.060;15.064;2022-12-07T02:20:30;-1.60;99.90
4795;DHT22;2411;47.060;15.064;2022-12-07T02:26:14;-1.30;99.90
4795;DHT22;2411;47.060;15.064;2022-12-07T02:29:18;-1.30;99.90
4795;DHT22;2411;47.060;15.064;2022-12-07T02:31:54;-1.50;92.50
4795;DHT22;2411;47.060;15.064;2022-12-07T02:34:35;-1.50;95.80
4795;DHT22;2411;47.060;15.064;2022-12-07T02:37:14;-1.40;98.90
4795;DHT22;2411;47.060;15.064;2022-12-07T02:39:51;-1.10;98.10
4795;DHT22;2411;47.060;15.064;2022-12-07T02:42:31;-1.10;95.30
4795;DHT22;2411;47.060;15.064;2022-12-07T02:44:59;-1.30;77.30
4795;DHT22;2411;47.060;15.064;2022-12-07T02:47:28;-1.50;69.80
4795;DHT22;2411;47.060;15.064;2022-12-07T02:49:56;-1.80;57.70
4795;DHT22;2411;47.060;15.064;2022-12-07T02:52:23;-1.90;61.80
4795;DHT22;2411;47.060;15.064;2022-12-07T02:54:51;-1.90;68.20
4795;DHT22;2411;47.060;15.064;2022-12-07T02:57:49;-1.90;74.90
4795;DHT22;2411;47.060;15.064;2022-12-07T03:00:21;-1.90;80.10
4795;DHT22;2411;47.060;15.064;2022-12-07T03:02:58;-2.00;79.60
4795;DHT22;2411;47.060;15.064;2022-12-07T03:06:06;-2.00;87.40
4795;DHT22;2411;47.060;15.064;2022-12-07T03:08:47;-1.90;93.30
4795;DHT22;2411;47.060;15.064;2022-12-07T03:11:29;-1.80;99.20
4795;DHT22;2411;47.060;15.064;2022-12-07T03:16:46;-1.80;94.10
4795;DHT22;2411;47.060;15.064;2022-12-07T03:19:17;-1.90;90.00
4795;DHT22;2411;47.060;15.064;2022-12-07T03:24:29;-1.80;91.60
4795;DHT22;2411;47.060;15.064;2022-12-07T03:27:08;-1.60;99.90
4795;DHT22;2411;47.060;15.064;2022-12-07T03:29:47;-1.60;93.30
4795;DHT22;2411;47.060;15.064;2022-12-07T03:37:36;-2.10;59.80
4795;DHT22;2411;47.060;15.064;2022-12-07T03:42:37;-2.30;73.20
4795;DHT22;2411;47.060;15.064;2022-12-07T03:45:06;-2.30;74.70
4795;DHT22;2411;47.060;15.064;2022-12-07T03:47:52;-2.20;85.80
4795;DHT22;2411;47.060;15.064;2022-12-07T03:50:29;-2.20;87.10
4795;DHT22;2411;47.060;15.064;2022-12-07T03:53:09;-2.10;94.60
4795;DHT22;2411;47.060;15.064;2022-12-07T03:55:42;-2.00;99.90
4795;DHT22;2411;47.060;15.064;2022-12-07T03:58:19;-2.00;99.90
4795;DHT22;2411;47.060;15.064;2022-12-07T04:00:48;-1.90;99.90
4795;DHT22;2411;47.060;15.064;2022-12-07T04:03:16;-1.90;99.90
4795;DHT22;2411;47.060;15.064;2022-12-07T04:05:44;-1.70;99.90
4795;DHT22;2411;47.060;15.064;2022-12-07T04:08:11;-1.60;99.90
4795;DHT22;2411;47.060;15.064;2022-12-07T04:10:39;-1.60;98.10
4795;DHT22;2411;47.060;15.064;2022-12-07T04:13:06;-1.60;95.80
4795;DHT22;2411;47.060;15.064;2022-12-07T04:15:33;-1.60;95.00
4795;DHT22;2411;47.060;15.064;2022-12-07T04:18:00;-1.70;89.60
4795;DHT22;2411;47.060;15.064;2022-12-07T04:20:28;-1.60;92.50
4795;DHT22;2411;47.060;15.064;2022-12-07T04:22:55;-1.50;90.90
4795;DHT22;2411;47.060;15.064;2022-12-07T04:25:22;-1.70;76.50
4795;DHT22;2411;47.060;15.064;2022-12-07T04:27:49;-1.80;74.10
4795;DHT22;2411;47.060;15.064;2022-12-07T04:30:17;-2.00;69.90
4795;DHT22;2411;47.060;15.064;2022-12-07T04:32:44;-2.00;74.10
4795;DHT22;2411;47.060;15.064;2022-12-07T04:35:11;-1.80;91.20
4795;DHT22;2411;47.060;15.064;2022-12-07T04:37:38;-2.00;79.60
4795;DHT22;2411;47.060;15.064;2022-12-07T04:40:08;-2.00;83.40
4795;DHT22;2411;47.060;15.064;2022-12-07T04:42:38;-2.00;85.90
4795;DHT22;2411;47.060;15.064;2022-12-07T04:45:05;-2.10;77.50
4795;DHT22;2411;47.060;15.064;2022-12-07T04:47:33;-2.20;78.20
4795;DHT22;2411;47.060;15.064;2022-12-07T04:50:00;-2.20;79.10
4795;DHT22;2411;47.060;15.064;2022-12-07T04:52:28;-2.10;86.30
4795;DHT22;2411;47.060;15.064;2022-12-07T04:54:56;-2.00;93.10
4795;DHT22;2411;47.060;15.064;2022-12-07T04:57:23;-2.10;89.40
4795;DHT22;2411;47.060;15.064;2022-12-07T04:59:50;-2.00;91.40
4795;DHT22;2411;47.060;15.064;2022-12-07T05:02:17;-2.00;92.60
4795;DHT22;2411;47.060;15.064;2022-12-07T05:04:45;-1.70;95.90
4795;DHT22;2411;47.060;15.064;2022-12-07T05:07:12;-1.80;90.00
4795;DHT22;2411;47.060;15.064;2022-12-07T05:09:39;-1.90;85.20
4795;DHT22;2411;47.060;15.064;2022-12-07T05:12:07;-2.00;87.00
4795;DHT22;2411;47.060;15.064;2022-12-07T05:14:34;-1.90;92.90
4795;DHT22;2411;47.060;15.064;2022-12-07T05:17:01;-2.00;87.80
4795;DHT22;2411;47.060;15.064;2022-12-07T05:19:28;-2.00;92.20
4795;DHT22;2411;47.060;15.064;2022-12-07T05:21:56;-2.00;92.40
4795;DHT22;2411;47.060;15.064;2022-12-07T05:24:23;-1.90;93.30
4795;DHT22;2411;47.060;15.064;2022-12-07T05:26:50;-1.80;98.20
4795;DHT22;2411;47.060;15.064;2022-12-07T05:29:17;-1.50;97.70
4795;DHT22;2411;47.060;15.064;2022-12-07T05:31:45;-1.40;92.40
4795;DHT22;2411;47.060;15.064;2022-12-07T05:34:12;-1.60;78.60
4795;DHT22;2411;47.060;15.064;2022-12-07T05:36:40;-1.90;59.90
4795;DHT22;2411;47.060;15.064;2022-12-07T05:39:07;-2.00;63.50
4795;DHT22;2411;47.060;15.064;2022-12-07T05:41:34;-2.00;74.10
4795;DHT22;2411;47.060;15.064;2022-12-07T05:44:20;-2.00;84.70
4795;DHT22;2411;47.060;15.064;2022-12-07T05:46:47;-1.90;91.00
4795;DHT22;2411;47.060;15.064;2022-12-07T05:49:14;-1.80;93.70
4795;DHT22;2411;47.060;15.064;2022-12-07T05:51:42;-1.90;90.90
4795;DHT22;2411;47.060;15.064;2022-12-07T05:54:09;-2.00;83.10
4795;DHT22;2411;47.060;15.064;2022-12-07T05:56:36;-2.10;82.50
4795;DHT22;2411;47.060;15.064;2022-12-07T05:59:04;-2.10;82.90
4795;DHT22;2411;47.060;15.064;2022-12-07T06:01:50;-2.10;77.40
4795;DHT22;2411;47.060;15.064;2022-12-07T06:04:17;-2.00;76.50
4795;DHT22;2411;47.060;15.064;2022-12-07T06:06:45;-2.20;66.80
4795;DHT22;2411;47.060;15.064;2022-12-07T06:09:13;-2.30;66.30
4795;DHT22;2411;47.060;15.064;2022-12-07T06:11:41;-2.30;78.40
4795;DHT22;2411;47.060;15.064;2022-12-07T06:14:27;-2.30;88.90
4795;DHT22;2411;47.060;15.064;2022-12-07T06:16:54;-2.40;88.30
4795;DHT22;2411;47.060;15.064;2022-12-07T06:19:21;-2.40;88.10
4795;DHT22;2411;47.060;15.064;2022-12-07T06:21:49;-2.50;89.00
4795;DHT22;2411;47.060;15.064;2022-12-07T06:24:16;-2.60;86.90
4795;DHT22;2411;47.060;15.064;2022-12-07T06:26:44;-2.50;92.60
4795;DHT22;2411;47.060;15.064;2022-12-07T06:29:12;-2.60;94.50
4795;DHT22;2411;47.060;15.064;2022-12-07T06:31:40;-2.60;93.20
4795;DHT22;2411;47.060;15.064;2022-12-07T06:34:14;-2.70;92.80
4795;DHT22;2411;47.060;15.064;2022-12-07T06:36:42;-2.80;91.60
4795;DHT22;2411;47.060;15.064;2022-12-07T06:39:10;-2.80;92.60
4795;DHT22;2411;47.060;15.064;2022-12-07T06:41:38;-2.80;95.90
4795;DHT22;2411;47.060;15.064;2022-12-07T06:44:06;-2.50;99.90
4795;DHT22;2411;47.060;15.064;2022-12-07T06:46:34;-2.40;99.90
4795;DHT22;2411;47.060;15.064;2022-12-07T06:49:03;-2.40;99.90
4795;DHT22;2411;47.060;15.064;2022-12-07T06:51:32;-2.40;99.90
4795;DHT22;2411;47.060;15.064;2022-12-07T06:53:59;-2.40;99.90
4795;DHT22;2411;47.060;15.064;2022-12-07T06:56:26;-2.40;99.90
4795;DHT22;2411;47.060;15.064;2022-12-07T06:58:54;-2.40;99.90
4795;DHT22;2411;47.060;15.064;2022-12-07T07:01:21;-2.50;96.90
4795;DHT22;2411;47.060;15.064;2022-12-07T07:03:48;-2.40;99.90
4795;DHT22;2411;47.060;15.064;2022-12-07T07:06:16;-2.30;99.90
4795;DHT22;2411;47.060;15.064;2022-12-07T07:08:43;-2.00;99.90
4795;DHT22;2411;47.060;15.064;2022-12-07T07:11:11;-2.10;99.90
4795;DHT22;2411;47.060;15.064;2022-12-07T07:13:38;-2.10;99.90
4795;DHT22;2411;47.060;15.064;2022-12-07T07:16:06;-2.20;94.80
4795;DHT22;2411;47.060;15.064;2022-12-07T07:18:34;-2.20;96.40
4795;DHT22;2411;47.060;15.064;2022-12-07T07:21:01;-2.20;98.30
4795;DHT22;2411;47.060;15.064;2022-12-07T07:23:29;-2.10;98.30
4795;DHT22;2411;47.060;15.064;2022-12-07T07:25:56;-2.00;99.90
4795;DHT22;2411;47.060;15.064;2022-12-07T07:28:23;-1.90;99.90
4795;DHT22;2411;47.060;15.064;2022-12-07T07:30:51;-1.80;99.90
4795;DHT22;2411;47.060;15.064;2022-12-07T07:33:18;-1.70;99.90
4795;DHT22;2411;47.060;15.064;2022-12-07T07:35:45;-1.60;99.90
4795;DHT22;2411;47.060;15.064;2022-12-07T07:38:13;-1.50;99.90
4795;DHT22;2411;47.060;15.064;2022-12-07T07:40:40;-1.50;99.90
4795;DHT22;2411;47.060;15.064;2022-12-07T07:43:07;-1.50;99.90
4795;DHT22;2411;47.060;15.064;2022-12-07T07:45:35;-1.50;99.90
4795;DHT22;2411;47.060;15.064;2022-12-07T07:48:02;-1.40;99.90
4795;DHT22;2411;47.060;15.064;2022-12-07T07:50:29;-1.40;99.90
4795;DHT22;2411;47.060;15.064;2022-12-07T07:52:57;-1.40;99.90
4795;DHT22;2411;47.060;15.064;2022-12-07T07:55:25;-1.30;99.90
4795;DHT22;2411;47.060;15.064;2022-12-07T07:57:52;-1.10;99.90
4795;DHT22;2411;47.060;15.064;2022-12-07T08:00:21;-1.00;99.90
4795;DHT22;2411;47.060;15.064;2022-12-07T08:02:49;-0.80;99.90
4795;DHT22;2411;47.060;15.064;2022-12-07T08:05:16;-0.70;99.90
4795;DHT22;2411;47.060;15.064;2022-12-07T08:07:44;-0.60;99.90
4795;DHT22;2411;47.060;15.064;2022-12-07T08:10:12;-0.50;99.90
4795;DHT22;2411;47.060;15.064;2022-12-07T08:12:41;-0.40;99.90
4795;DHT22;2411;47.060;15.064;2022-12-07T08:15:28;-0.20;99.90
4795;DHT22;2411;47.060;15.064;2022-12-07T08:17:56;-0.10;99.90
4795;DHT22;2411;47.060;15.064;2022-12-07T08:20:23;0.00;99.90
4795;DHT22;2411;47.060;15.064;2022-12-07T08:22:50;0.00;99.90
4795;DHT22;2411;47.060;15.064;2022-12-07T08:25:18;0.00;99.90
4795;DHT22;2411;47.060;15.064;2022-12-07T08:27:45;-0.10;99.90
4795;DHT22;2411;47.060;15.064;2022-12-07T08:30:13;0.00;99.90
4795;DHT22;2411;47.060;15.064;2022-12-07T08:32:40;0.10;99.90
4795;DHT22;2411;47.060;15.064;2022-12-07T08:35:08;0.00;94.00
4795;DHT22;2411;47.060;15.064;2022-12-07T08:37:36;0.10;97.30
4795;DHT22;2411;47.060;15.064;2022-12-07T08:40:04;0.10;89.70
4795;DHT22;2411;47.060;15.064;2022-12-07T08:42:32;0.20;95.40
4795;DHT22;2411;47.060;15.064;2022-12-07T08:45:11;0.30;98.20
4795;DHT22;2411;47.060;15.064;2022-12-07T08:47:43;0.40;91.20
4795;DHT22;2411;47.060;15.064;2022-12-07T08:50:12;0.40;87.90
4795;DHT22;2411;47.060;15.064;2022-12-07T08:52:40;0.40;75.30
4795;DHT22;2411;47.060;15.064;2022-12-07T08:55:10;0.40;76.50
4795;DHT22;2411;47.060;15.064;2022-12-07T08:57:39;0.50;89.40
4795;DHT22;2411;47.060;15.064;2022-12-07T09:00:07;0.60;96.50
4795;DHT22;2411;47.060;15.064;2022-12-07T09:02:35;0.60;94.00
4795;DHT22;2411;47.060;15.064;2022-12-07T09:05:03;0.80;98.50
4795;DHT22;2411;47.060;15.064;2022-12-07T09:07:31;0.90;99.90
4795;DHT22;2411;47.060;15.064;2022-12-07T09:10:00;0.80;95.90
4795;DHT22;2411;47.060;15.064;2022-12-07T09:12:28;0.90;98.80
4795;DHT22;2411;47.060;15.064;2022-12-07T09:14:56;0.90;94.50
4795;DHT22;2411;47.060;15.064;2022-12-07T09:17:23;1.00;95.00
4795;DHT22;2411;47.060;15.064;2022-12-07T09:19:50;1.00;97.10
4795;DHT22;2411;47.060;15.064;2022-12-07T09:22:18;1.00;93.00
4795;DHT22;2411;47.060;15.064;2022-12-07T09:24:45;1.00;90.30
4795;DHT22;2411;47.060;15.064;2022-12-07T09:27:13;1.00;74.30
4795;DHT22;2411;47.060;15.064;2022-12-07T09:29:40;1.10;82.90
4795;DHT22;2411;47.060;15.064;2022-12-07T09:32:08;1.30;93.20
4795;DHT22;2411;47.060;15.064;2022-12-07T09:34:38;1.40;91.30
4795;DHT22;2411;47.060;15.064;2022-12-07T09:37:05;1.50;86.80
4795;DHT22;2411;47.060;15.064;2022-12-07T09:39:33;1.50;89.00
4795;DHT22;2411;47.060;15.064;2022-12-07T09:42:03;1.60;90.70
4795;DHT22;2411;47.060;15.064;2022-12-07T09:44:31;1.60;96.00
4795;DHT22;2411;47.060;15.064;2022-12-07T09:46:59;1.60;80.60
4795;DHT22;2411;47.060;15.064;2022-12-07T09:49:30;1.60;82.10
4795;DHT22;2411;47.060;15.064;2022-12-07T09:52:16;1.70;90.60
4795;DHT22;2411;47.060;15.064;2022-12-07T09:54:47;1.70;84.30
4795;DHT22;2411;47.060;15.064;2022-12-07T09:57:16;1.70;85.80
4795;DHT22;2411;47.060;15.064;2022-12-07T09:59:43;1.70;79.90
4795;DHT22;2411;47.060;15.064;2022-12-07T10:04:58;1.60;71.10
4795;DHT22;2411;47.060;15.064;2022-12-07T10:07:26;1.60;81.70
4795;DHT22;2411;47.060;15.064;2022-12-07T10:09:54;1.60;78.30
4795;DHT22;2411;47.060;15.064;2022-12-07T10:12:21;1.50;61.20
4795;DHT22;2411;47.060;15.064;2022-12-07T10:15:09;1.50;63.60
4795;DHT22;2411;47.060;15.064;2022-12-07T10:17:38;1.60;67.90
4795;DHT22;2411;47.060;15.064;2022-12-07T10:23:15;1.70;66.30
4795;DHT22;2411;47.060;15.064;2022-12-07T10:25:43;1.70;74.60
4795;DHT22;2411;47.060;15.064;2022-12-07T10:28:15;1.80;56.50
4795;DHT22;2411;47.060;15.064;2022-12-07T10:30:58;1.90;59.00
4795;DHT22;2411;47.060;15.064;2022-12-07T10:33:58;1.90;53.00
4795;DHT22;2411;47.060;15.064;2022-12-07T10:36:27;2.00;49.40
4795;DHT22;2411;47.060;15.064;2022-12-07T10:41:28;2.20;51.00
4795;DHT22;2411;47.060;15.064;2022-12-07T10:43:56;2.30;39.80
4795;DHT22;2411;47.060;15.064;2022-12-07T10:47:06;2.40;40.20
4795;DHT22;2411;47.060;15.064;2022-12-07T10:55:35;2.70;44.00
4795;DHT22;2411;47.060;15.064;2022-12-07T11:03:54;3.10;42.90
4795;DHT22;2411;47.060;15.064;2022-12-07T11:06:39;3.30;53.80
4795;DHT22;2411;47.060;15.064;2022-12-07T11:15:17;3.70;32.80
4795;DHT22;2411;47.060;15.064;2022-12-07T11:18:27;3.80;31.30
4795;DHT22;2411;47.060;15.064;2022-12-07T11:37:25;4.00;38.70
4795;DHT22;2411;47.060;15.064;2022-12-07T11:40:50;3.90;36.70
4795;DHT22;2411;47.060;15.064;2022-12-07T11:42:59;3.90;36.00
4795;DHT22;2411;47.060;15.064;2022-12-07T11:45:33;4.00;29.10
4795;DHT22;2411;47.060;15.064;2022-12-07T11:48:04;4.10;27.40
4795;DHT22;2411;47.060;15.064;2022-12-07T11:50:51;4.20;28.90
4795;DHT22;2411;47.060;15.064;2022-12-07T11:53:25;4.20;28.20
4795;DHT22;2411;47.060;15.064;2022-12-07T11:56:02;4.40;28.80
4795;DHT22;2411;47.060;15.064;2022-12-07T12:03:56;4.60;26.20
4795;DHT22;2411;47.060;15.064;2022-12-07T12:06:25;4.70;26.00
4795;DHT22;2411;47.060;15.064;2022-12-07T12:09:21;4.80;24.90
4795;DHT22;2411;47.060;15.064;2022-12-07T12:21:02;5.10;24.30
4795;DHT22;2411;47.060;15.064;2022-12-07T12:23:39;5.00;23.80
4795;DHT22;2411;47.060;15.064;2022-12-07T12:26:15;4.90;23.10
4795;DHT22;2411;47.060;15.064;2022-12-07T12:29:02;4.90;24.10
4795;DHT22;2411;47.060;15.064;2022-12-07T12:31:40;4.80;23.30
4795;DHT22;2411;47.060;15.064;2022-12-07T12:45:28;4.10;20.60
4795;DHT22;2411;47.060;15.064;2022-12-07T12:48:28;4.00;20.40
4795;DHT22;2411;47.060;15.064;2022-12-07T12:54:08;3.90;21.50
4795;DHT22;2411;47.060;15.064;2022-12-07T12:59:33;3.70;20.80
4795;DHT22;2411;47.060;15.064;2022-12-07T13:02:32;3.70;21.10
4795;DHT22;2411;47.060;15.064;2022-12-07T13:15:39;3.50;21.00
4795;DHT22;2411;47.060;15.064;2022-12-07T13:20:56;3.40;21.40
4795;DHT22;2411;47.060;15.064;2022-12-07T13:31:41;3.10;21.70
4795;DHT22;2411;47.060;15.064;2022-12-07T13:39:49;2.90;22.80
4795;DHT22;2411;47.060;15.064;2022-12-07T13:44:46;2.80;24.00
4795;DHT22;2411;47.060;15.064;2022-12-07T13:47:36;2.80;23.90
4795;DHT22;2411;47.060;15.064;2022-12-07T13:50:27;2.80;24.80
4795;DHT22;2411;47.060;15.064;2022-12-07T13:52:59;2.70;25.00
4795;DHT22;2411;47.060;15.064;2022-12-07T13:55:28;2.70;25.20
4795;DHT22;2411;47.060;15.064;2022-12-07T13:57:56;2.80;25.20
4795;DHT22;2411;47.060;15.064;2022-12-07T14:00:26;2.90;26.40
4795;DHT22;2411;47.060;15.064;2022-12-07T14:05:28;3.00;26.70
4795;DHT22;2411;47.060;15.064;2022-12-07T14:08:05;3.10;26.60
4795;DHT22;2411;47.060;15.064;2022-12-07T14:10:36;3.10;25.40
4795;DHT22;2411;47.060;15.064;2022-12-07T14:13:27;3.20;25.30
4795;DHT22;2411;47.060;15.064;2022-12-07T14:15:56;3.20;23.90
4795;DHT22;2411;47.060;15.064;2022-12-07T14:18:45;3.10;24.50
4795;DHT22;2411;47.060;15.064;2022-12-07T14:23:41;3.00;24.30
4795;DHT22;2411;47.060;15.064;2022-12-07T14:26:19;3.00;24.10
4795;DHT22;2411;47.060;15.064;2022-12-07T14:28:47;2.90;23.90
4795;DHT22;2411;47.060;15.064;2022-12-07T14:31:17;2.90;24.40
4795;DHT22;2411;47.060;15.064;2022-12-07T14:33:59;2.80;23.80
4795;DHT22;2411;47.060;15.064;2022-12-07T14:36:26;2.80;23.40
4795;DHT22;2411;47.060;15.064;2022-12-07T14:38:53;2.80;23.00
4795;DHT22;2411;47.060;15.064;2022-12-07T14:41:23;2.70;23.80
4795;DHT22;2411;47.060;15.064;2022-12-07T14:44:11;2.70;23.90
4795;DHT22;2411;47.060;15.064;2022-12-07T14:46:59;2.60;23.60
4795;DHT22;2411;47.060;15.064;2022-12-07T14:49:46;2.60;23.10
4795;DHT22;2411;47.060;15.064;2022-12-07T14:52:19;2.60;25.70
4795;DHT22;2411;47.060;15.064;2022-12-07T14:55:14;2.50;24.50
4795;DHT22;2411;47.060;15.064;2022-12-07T14:57:41;2.50;23.70
4795;DHT22;2411;47.060;15.064;2022-12-07T15:00:13;2.50;24.30
4795;DHT22;2411;47.060;15.064;2022-12-07T15:02:40;2.50;25.30
4795;DHT22;2411;47.060;15.064;2022-12-07T15:05:08;2.40;26.60
4795;DHT22;2411;47.060;15.064;2022-12-07T15:07:42;2.30;27.20
4795;DHT22;2411;47.060;15.064;2022-12-07T15:10:22;2.30;28.00
4795;DHT22;2411;47.060;15.064;2022-12-07T15:12:51;2.30;30.80
4795;DHT22;2411;47.060;15.064;2022-12-07T15:15:18;2.40;32.80
4795;DHT22;2411;47.060;15.064;2022-12-07T15:17:45;2.40;36.80
4795;DHT22;2411;47.060;15.064;2022-12-07T15:20:14;2.40;35.50
4795;DHT22;2411;47.060;15.064;2022-12-07T15:22:43;2.40;33.50
4795;DHT22;2411;47.060;15.064;2022-12-07T15:25:14;2.50;32.50
4795;DHT22;2411;47.060;15.064;2022-12-07T15:27:41;2.40;29.90
4795;DHT22;2411;47.060;15.064;2022-12-07T15:30:09;2.40;30.00
4795;DHT22;2411;47.060;15.064;2022-12-07T15:32:36;2.30;30.10
4795;DHT22;2411;47.060;15.064;2022-12-07T15:35:04;2.30;51.40
4795;DHT22;2411;47.060;15.064;2022-12-07T15:37:31;2.20;32.60
4795;DHT22;2411;47.060;15.064;2022-12-07T15:39:59;2.20;34.50
4795;DHT22;2411;47.060;15.064;2022-12-07T15:42:33;2.20;34.30
4795;DHT22;2411;47.060;15.064;2022-12-07T15:45:00;2.20;35.70
4795;DHT22;2411;47.060;15.064;2022-12-07T15:47:40;2.20;35.90
4795;DHT22;2411;47.060;15.064;2022-12-07T15:50:27;2.30;38.50
4795;DHT22;2411;47.060;15.064;2022-12-07T15:52:54;2.30;37.70
4795;DHT22;2411;47.060;15.064;2022-12-07T15:55:22;2.30;40.70
4795;DHT22;2411;47.060;15.064;2022-12-07T15:57:49;2.30;43.20
4795;DHT22;2411;47.060;15.064;2022-12-07T16:00:17;2.40;44.10
4795;DHT22;2411;47.060;15.064;2022-12-07T16:02:44;2.40;47.50
4795;DHT22;2411;47.060;15.064;2022-12-07T16:05:11;2.30;43.70
4795;DHT22;2411;47.060;15.064;2022-12-07T16:07:39;2.40;38.30
4795;DHT22;2411;47.060;15.064;2022-12-07T16:10:06;2.30;36.80
4795;DHT22;2411;47.060;15.064;2022-12-07T16:12:34;2.30;38.50
4795;DHT22;2411;47.060;15.064;2022-12-07T16:15:01;2.30;37.20
4795;DHT22;2411;47.060;15.064;2022-12-07T16:17:29;2.30;37.60
4795;DHT22;2411;47.060;15.064;2022-12-07T16:19:56;2.20;36.50
4795;DHT22;2411;47.060;15.064;2022-12-07T16:22:24;2.20;39.20
4795;DHT22;2411;47.060;15.064;2022-12-07T16:24:51;2.10;60.90
4795;DHT22;2411;47.060;15.064;2022-12-07T16:27:18;2.00;42.10
4795;DHT22;2411;47.060;15.064;2022-12-07T16:29:46;2.00;41.30
4795;DHT22;2411;47.060;15.064;2022-12-07T16:32:13;2.00;40.70
4795;DHT22;2411;47.060;15.064;2022-12-07T16:34:40;1.90;43.80
4795;DHT22;2411;47.060;15.064;2022-12-07T16:37:07;2.00;68.20
4795;DHT22;2411;47.060;15.064;2022-12-07T16:39:35;2.10;48.10
4795;DHT22;2411;47.060;15.064;2022-12-07T16:42:03;2.10;43.30
4795;DHT22;2411;47.060;15.064;2022-12-07T16:44:31;2.00;44.30
4795;DHT22;2411;47.060;15.064;2022-12-07T16:46:59;2.00;43.40
4795;DHT22;2411;47.060;15.064;2022-12-07T16:49:28;2.00;41.50
4795;DHT22;2411;47.060;15.064;2022-12-07T16:51:55;2.00;44.10
4795;DHT22;2411;47.060;15.064;2022-12-07T16:54:43;2.00;43.80
4795;DHT22;2411;47.060;15.064;2022-12-07T16:57:11;2.00;46.50
4795;DHT22;2411;47.060;15.064;2022-12-07T16:59:45;2.00;46.20
4795;DHT22;2411;47.060;15.064;2022-12-07T17:02:13;1.90;46.90
4795;DHT22;2411;47.060;15.064;2022-12-07T17:04:40;2.00;47.40
4795;DHT22;2411;47.060;15.064;2022-12-07T17:07:09;1.90;50.30
4795;DHT22;2411;47.060;15.064;2022-12-07T17:09:36;1.90;52.30
4795;DHT22;2411;47.060;15.064;2022-12-07T17:12:04;1.80;54.00
4795;DHT22;2411;47.060;15.064;2022-12-07T17:14:33;1.70;55.00
4795;DHT22;2411;47.060;15.064;2022-12-07T17:17:18;1.70;55.70
4795;DHT22;2411;47.060;15.064;2022-12-07T17:19:46;1.60;54.90
4795;DHT22;2411;47.060;15.064;2022-12-07T17:22:13;1.60;54.80
4795;DHT22;2411;47.060;15.064;2022-12-07T17:24:40;1.50;55.80
4795;DHT22;2411;47.060;15.064;2022-12-07T17:27:07;1.50;56.80
4795;DHT22;2411;47.060;15.064;2022-12-07T17:29:35;1.60;59.90
4795;DHT22;2411;47.060;15.064;2022-12-07T17:32:02;1.60;63.50
4795;DHT22;2411;47.060;15.064;2022-12-07T17:34:30;1.60;62.10
4795;DHT22;2411;47.060;15.064;2022-12-07T17:36:57;1.50;62.90
4795;DHT22;2411;47.060;15.064;2022-12-07T17:39:24;1.50;61.70
4795;DHT22;2411;47.060;15.064;2022-12-07T17:41:51;1.50;61.20
4795;DHT22;2411;47.060;15.064;2022-12-07T17:44:37;1.50;60.60
4795;DHT22;2411;47.060;15.064;2022-12-07T17:47:04;1.50;64.90
4795;DHT22;2411;47.060;15.064;2022-12-07T17:49:33;1.60;66.90
4795;DHT22;2411;47.060;15.064;2022-12-07T17:52:00;1.60;63.50
4795;DHT22;2411;47.060;15.064;2022-12-07T17:54:46;1.60;63.20
4795;DHT22;2411;47.060;15.064;2022-12-07T17:57:13;1.60;65.70
4795;DHT22;2411;47.060;15.064;2022-12-07T17:59:41;1.50;64.40
4795;DHT22;2411;47.060;15.064;2022-12-07T18:02:09;1.60;65.30
4795;DHT22;2411;47.060;15.064;2022-12-07T18:04:37;1.50;64.30
4795;DHT22;2411;47.060;15.064;2022-12-07T18:07:04;1.50;62.90
4795;DHT22;2411;47.060;15.064;2022-12-07T18:09:32;1.50;64.10
4795;DHT22;2411;47.060;15.064;2022-12-07T18:12:00;1.50;61.90
4795;DHT22;2411;47.060;15.064;2022-12-07T18:14:28;1.50;64.40
4795;DHT22;2411;47.060;15.064;2022-12-07T18:16:55;1.40;61.50
4795;DHT22;2411;47.060;15.064;2022-12-07T18:19:23;1.50;84.70
4795;DHT22;2411;47.060;15.064;2022-12-07T18:21:50;1.40;62.70
4795;DHT22;2411;47.060;15.064;2022-12-07T18:24:17;1.40;60.90
4795;DHT22;2411;47.060;15.064;2022-12-07T18:26:45;1.40;61.80
4795;DHT22;2411;47.060;15.064;2022-12-07T18:29:16;1.40;61.30
4795;DHT22;2411;47.060;15.064;2022-12-07T18:31:44;1.50;63.50